Terminal Aerodrome Forecast
Issued by NWS Twin Cities, MN

Home | Current Version | Previous Version | Text Only | Print | Product List | Glossary Off
Versions: 1 2 3 4 5 6 7 8 9 10 11 12 13 14 15 16 17 18 19 20 21 22 23 24 25 26

000
FTUS43 KMPX 280200 AAA
TAFMSP
TAF AMD
KMSP 280242Z 2803/2906 03009KT P6SM SCT026 BKN045
      TEMPO 2803/2806 BKN026
     FM280600 36006KT P6SM SCT030 BKN060
     FM281500 33009KT P6SM SCT050=

USA.gov is the U.S. government's official web portal to all federal, state and local government web resources and services.